Time;durP1;ratioP1;P1;durP2;ratioP2;P2;SDS_P1;SDS_P2;PMS_P1;PMS_P2;Temp;Humidity;BMP_temperature;BMP_pressure;BME280_temperature;BME280_humidity;BME280_pressure;Samples;Min_cycle;Max_cycle;Signal;HPM_P1;HPM_P2
2022/12/05 00:00:26;;;;;;;59.13;21.23;;;4.60;99.90;;;;;;5074977;28;20416;-56
2022/12/05 00:02:56;;;;;;;47.37;17.33;;;4.70;99.90;;;;;;5075282;28;20439;-56
2022/12/05 00:05:23;;;;;;;52.80;18.87;;;4.60;99.90;;;;;;5075506;28;20435;-59
2022/12/05 00:07:50;;;;;;;44.10;18.63;;;4.60;99.90;;;;;;5075448;28;20465;-56
2022/12/05 00:10:17;;;;;;;51.33;17.80;;;4.60;99.90;;;;;;5075018;28;20467;-57
2022/12/05 00:12:45;;;;;;;40.03;18.93;;;4.60;99.90;;;;;;5075472;28;20427;-58
2022/12/05 00:15:12;;;;;;;45.63;18.90;;;4.60;99.90;;;;;;5075171;28;20463;-57
2022/12/05 00:17:40;;;;;;;44.70;19.37;;;4.60;99.90;;;;;;5075802;28;20423;-58
2022/12/05 00:20:08;;;;;;;49.40;21.10;;;4.60;99.90;;;;;;5075393;28;20511;-57
2022/12/05 00:22:36;;;;;;;42.60;17.17;;;4.60;99.90;;;;;;5075002;28;20486;-58
2022/12/05 00:25:04;;;;;;;63.83;22.60;;;4.60;99.90;;;;;;5075233;28;20439;-56
2022/12/05 00:27:32;;;;;;;55.27;17.47;;;4.60;99.90;;;;;;5075676;28;20450;-58
2022/12/05 00:30:00;;;;;;;46.33;14.63;;;4.60;99.90;;;;;;5075342;28;20470;-55
2022/12/05 00:32:29;;;;;;;43.80;19.43;;;4.60;99.90;;;;;;5079440;28;20450;-58
2022/12/05 00:34:56;;;;;;;55.70;17.10;;;4.70;99.90;;;;;;5079919;28;20450;-59
2022/12/05 00:37:23;;;;;;;44.07;20.23;;;4.70;99.90;;;;;;5079804;28;20483;-58
2022/12/05 00:39:50;;;;;;;69.00;19.50;;;4.70;99.90;;;;;;5080433;28;20439;-62
2022/12/05 00:42:17;;;;;;;56.40;17.83;;;4.70;99.90;;;;;;5080683;28;20431;-55
2022/12/05 00:44:44;;;;;;;51.30;19.97;;;4.70;99.90;;;;;;5079987;28;20474;-62
2022/12/05 00:47:12;;;;;;;46.03;20.30;;;4.70;99.90;;;;;;5079568;28;20438;-57
2022/12/05 00:49:39;;;;;;;50.67;17.80;;;4.70;99.90;;;;;;5079394;28;20459;-61
2022/12/05 00:52:06;;;;;;;67.10;21.00;;;4.70;99.90;;;;;;5078742;28;20772;-60
2022/12/05 00:54:33;;;;;;;48.63;18.57;;;4.60;99.90;;;;;;5078464;28;20455;-65
2022/12/05 00:57:00;;;;;;;69.10;22.97;;;4.70;99.90;;;;;;5078955;28;20498;-62
2022/12/05 00:59:27;;;;;;;63.83;17.60;;;4.70;99.90;;;;;;5079056;28;20455;-57
2022/12/05 01:01:53;;;;;;;61.13;20.93;;;4.70;99.90;;;;;;5078683;28;20565;-58
2022/12/05 01:04:26;;;;;;;52.27;19.40;;;4.70;99.90;;;;;;5079036;28;20428;-57
2022/12/05 01:06:58;;;;;;;60.17;22.30;;;4.70;99.90;;;;;;5078328;28;20450;-56
2022/12/05 01:09:26;;;;;;;53.50;20.30;;;4.70;99.90;;;;;;5078136;28;20427;-58
2022/12/05 01:11:53;;;;;;;55.03;23.00;;;4.70;99.90;;;;;;5078239;28;20419;-59
2022/12/05 01:14:22;;;;;;;41.80;13.70;;;4.70;99.90;;;;;;5077761;28;20458;-55
2022/12/05 01:16:53;;;;;;;50.80;20.13;;;4.80;99.90;;;;;;5077783;28;20486;-59
2022/12/05 01:19:22;;;;;;;52.90;17.17;;;4.80;99.90;;;;;;5078440;28;20452;-58
2022/12/05 01:21:50;;;;;;;53.43;20.10;;;4.80;99.90;;;;;;5078265;28;20419;-55
2022/12/05 01:24:19;;;;;;;43.93;19.30;;;4.70;99.90;;;;;;5078053;28;20471;-54
2022/12/05 01:26:47;;;;;;;43.43;16.80;;;4.70;99.90;;;;;;5078046;28;20451;-57
2022/12/05 01:29:17;;;;;;;46.60;19.93;;;4.80;99.90;;;;;;5077915;28;20442;-60
2022/12/05 01:31:44;;;;;;;38.00;16.00;;;4.80;99.90;;;;;;5071300;28;20471;-58
2022/12/05 01:34:14;;;;;;;57.73;20.07;;;4.70;99.90;;;;;;5078361;28;20439;-50
2022/12/05 01:36:41;;;;;;;52.60;22.00;;;4.70;99.90;;;;;;5077007;28;20514;-60
2022/12/05 01:39:12;;;;;;;54.00;20.67;;;4.70;99.90;;;;;;5077553;28;20474;-56
2022/12/05 01:41:41;;;;;;;63.90;21.00;;;4.70;99.90;;;;;;5075713;28;20428;-61
2022/12/05 01:44:47;;;;;;;47.07;18.67;;;4.70;99.90;;;;;;5073881;28;20447;-54
2022/12/05 01:47:17;;;;;;;40.50;17.03;;;4.70;99.90;;;;;;5076819;28;20439;-54
2022/12/05 01:49:44;;;;;;;39.77;15.87;;;4.70;99.90;;;;;;5070378;28;20478;-61
2022/12/05 01:52:16;;;;;;;47.57;19.77;;;4.70;99.90;;;;;;5076184;28;20440;-54
2022/12/05 01:54:48;;;;;;;58.67;19.53;;;4.80;99.90;;;;;;5077214;28;20443;-57
2022/12/05 01:57:15;;;;;;;44.53;20.43;;;4.70;99.90;;;;;;5076946;28;20463;-57
2022/12/05 01:59:47;;;;;;;43.83;17.27;;;4.70;99.90;;;;;;5077630;28;20474;-53
2022/12/05 02:02:14;;;;;;;49.03;17.27;;;4.70;99.90;;;;;;5076572;28;20432;-54
2022/12/05 02:04:48;;;;;;;52.63;20.50;;;4.70;99.90;;;;;;5070019;28;20444;-53
2022/12/05 02:07:15;;;;;;;46.57;18.40;;;4.70;99.90;;;;;;5077418;28;20408;-57
2022/12/05 02:09:44;;;;;;;57.50;18.53;;;4.70;99.90;;;;;;5077584;28;20439;-48
2022/12/05 02:12:11;;;;;;;36.67;15.00;;;4.70;99.90;;;;;;5078280;28;20477;-56
2022/12/05 02:14:46;;;;;;;49.27;19.43;;;4.70;99.90;;;;;;5069755;28;20470;-58
2022/12/05 02:17:23;;;;;;;50.13;21.80;;;4.70;99.90;;;;;;5078712;28;20483;-54
2022/12/05 02:20:06;;;;;;;53.50;19.80;;;4.70;99.90;;;;;;5078655;28;20446;-50
2022/12/05 02:22:58;;;;;;;55.57;17.47;;;4.70;99.90;;;;;;5078450;28;20459;-55
2022/12/05 02:26:01;;;;;;;45.53;15.70;;;4.70;99.90;;;;;;5069603;28;20444;-54
2022/12/05 02:28:54;;;;;;;36.30;15.20;;;4.70;99.90;;;;;;5077862;28;20503;-61
2022/12/05 02:31:27;;;;;;;49.37;19.50;;;4.60;99.90;;;;;;5078671;28;20435;-51
2022/12/05 02:34:04;;;;;;;38.53;16.40;;;4.50;99.90;;;;;;5077571;28;20487;-51
2022/12/05 02:36:39;;;;;;;41.87;18.73;;;4.60;99.90;;;;;;5077397;28;20443;-61
2022/12/05 02:39:12;;;;;;;50.20;18.57;;;4.60;99.90;;;;;;5077521;28;20423;-61
2022/12/05 02:41:48;;;;;;;38.57;16.87;;;4.60;99.90;;;;;;5077258;28;20430;-60
2022/12/05 02:44:18;;;;;;;44.93;19.47;;;4.70;99.90;;;;;;5078131;28;20427;-58
2022/12/05 02:46:51;;;;;;;37.53;17.27;;;4.70;99.90;;;;;;5076881;28;20478;-61
2022/12/05 02:49:22;;;;;;;48.37;19.87;;;4.70;99.90;;;;;;5076978;28;20439;-57
2022/12/05 02:51:54;;;;;;;47.37;20.03;;;4.70;99.90;;;;;;5065597;28;20550;-60
2022/12/05 02:54:27;;;;;;;33.37;14.97;;;4.70;99.90;;;;;;5075850;28;20427;-58
2022/12/05 02:56:56;;;;;;;62.33;19.33;;;4.70;99.90;;;;;;5076694;28;20471;-57
2022/12/05 02:59:23;;;;;;;49.87;17.60;;;4.60;99.90;;;;;;5076508;28;20458;-58
2022/12/05 03:01:51;;;;;;;41.77;19.70;;;4.60;99.90;;;;;;5076905;28;20439;-60
2022/12/05 03:04:21;;;;;;;52.17;18.43;;;4.60;99.90;;;;;;5076544;28;20454;-54
2022/12/05 03:06:53;;;;;;;47.43;20.47;;;4.60;99.90;;;;;;5076440;28;20514;-57
2022/12/05 03:09:24;;;;;;;48.13;17.87;;;4.60;99.90;;;;;;5076213;28;20464;-54
2022/12/05 03:12:07;;;;;;;43.57;15.70;;;4.60;99.90;;;;;;5076680;28;20435;-60
2022/12/05 03:14:39;;;;;;;33.37;15.30;;;4.60;99.90;;;;;;5074309;28;20453;-58
2022/12/05 03:17:12;;;;;;;27.20;13.33;;;4.60;99.90;;;;;;5075688;28;20463;-61
2022/12/05 03:19:48;;;;;;;24.80;12.93;;;4.60;99.90;;;;;;5076264;28;20411;-57
2022/12/05 03:22:21;;;;;;;45.10;17.60;;;4.50;99.90;;;;;;5076147;28;20475;-61
2022/12/05 03:24:48;;;;;;;40.13;16.83;;;4.50;99.90;;;;;;5076628;28;20873;-60
2022/12/05 03:27:24;;;;;;;30.27;12.20;;;4.50;99.90;;;;;;5075805;28;20466;-58
2022/12/05 03:29:56;;;;;;;29.53;14.77;;;4.60;99.90;;;;;;5075666;28;20443;-63
2022/12/05 03:32:29;;;;;;;37.60;18.63;;;4.60;99.90;;;;;;5076031;28;20493;-57
2022/12/05 03:35:04;;;;;;;30.33;14.37;;;4.60;99.90;;;;;;5075686;28;20506;-57
2022/12/05 03:37:41;;;;;;;29.57;14.20;;;4.70;99.90;;;;;;5071107;28;20467;-58
2022/12/05 03:40:15;;;;;;;40.60;14.90;;;4.70;99.90;;;;;;5075694;28;20455;-52
2022/12/05 03:42:50;;;;;;;43.73;15.53;;;4.70;99.90;;;;;;5074572;28;20441;-61
2022/12/05 03:45:26;;;;;;;52.10;15.03;;;4.70;99.90;;;;;;5075865;28;20442;-60
2022/12/05 03:47:59;;;;;;;48.90;16.60;;;4.80;99.90;;;;;;5075424;28;20407;-58
2022/12/05 03:50:28;;;;;;;51.80;16.40;;;4.80;99.90;;;;;;5074676;28;20527;-56
2022/12/05 03:52:59;;;;;;;33.90;13.93;;;4.80;99.90;;;;;;5074546;28;20439;-57
2022/12/05 03:55:29;;;;;;;48.70;17.10;;;4.80;99.90;;;;;;5075079;28;20461;-58
2022/12/05 03:58:02;;;;;;;40.00;18.20;;;4.80;99.90;;;;;;5075629;28;20467;-54
2022/12/05 04:00:35;;;;;;;39.70;15.37;;;4.70;99.90;;;;;;5075734;28;20435;-61
2022/12/05 04:03:07;;;;;;;35.17;15.70;;;4.70;99.90;;;;;;5074668;28;20428;-62
2022/12/05 04:05:42;;;;;;;52.37;17.70;;;4.70;99.90;;;;;;5069924;28;20503;-58
2022/12/05 04:08:14;;;;;;;25.60;10.97;;;4.80;99.90;;;;;;5080345;28;20420;-59
2022/12/05 04:10:48;;;;;;;27.07;12.27;;;4.70;99.90;;;;;;5080465;28;20427;-58
2022/12/05 04:13:19;;;;;;;40.20;14.77;;;4.70;99.90;;;;;;5080152;28;20469;-58
2022/12/05 04:18:54;;;;;;;37.50;15.90;;;4.70;99.90;;;;;;5079415;28;20478;-55
2022/12/05 04:21:37;;;;;;;32.20;17.60;;;4.70;99.90;;;;;;5079553;28;20424;-61
2022/12/05 04:26:56;;;;;;;35.90;13.60;;;4.70;99.90;;;;;;5078635;28;20399;-62
2022/12/05 04:29:29;;;;;;;38.27;16.77;;;4.70;99.90;;;;;;5076690;28;20423;-62
2022/12/05 04:32:04;;;;;;;37.80;16.83;;;4.70;99.90;;;;;;5077713;28;20461;-56
2022/12/05 04:34:35;;;;;;;31.20;14.00;;;4.70;99.90;;;;;;5079061;28;20427;-59
2022/12/05 04:37:06;;;;;;;30.23;11.70;;;4.70;99.90;;;;;;5078759;28;20471;-62
2022/12/05 04:39:39;;;;;;;25.23;11.37;;;4.70;99.90;;;;;;5071760;28;20432;-58
2022/12/05 04:42:10;;;;;;;39.23;15.77;;;4.70;99.90;;;;;;5078976;28;20557;-56
2022/12/05 04:44:40;;;;;;;32.70;13.53;;;4.70;99.90;;;;;;5079057;28;20900;-56
2022/12/05 04:47:19;;;;;;;33.97;14.43;;;4.70;99.90;;;;;;5078514;28;20479;-57
2022/12/05 04:49:48;;;;;;;30.93;13.37;;;4.60;99.90;;;;;;5078506;28;20434;-56
2022/12/05 04:52:16;;;;;;;31.83;13.33;;;4.60;99.90;;;;;;5078786;28;20439;-60
2022/12/05 04:54:49;;;;;;;30.43;13.73;;;4.60;99.90;;;;;;5078137;28;20430;-55
2022/12/05 04:57:21;;;;;;;26.90;12.60;;;4.60;99.90;;;;;;5078458;28;20463;-55
2022/12/05 04:59:48;;;;;;;24.63;11.03;;;4.70;99.90;;;;;;5079010;28;20411;-60
2022/12/05 05:02:20;;;;;;;39.10;15.03;;;4.70;99.90;;;;;;5077789;28;20501;-61
2022/12/05 05:04:52;;;;;;;20.27;11.70;;;4.70;99.90;;;;;;5078861;28;20535;-58
2022/12/05 05:07:21;;;;;;;22.87;11.70;;;4.70;99.90;;;;;;5078116;28;20451;-59
2022/12/05 05:09:48;;;;;;;30.97;13.60;;;4.70;99.90;;;;;;5077798;28;20446;-59
2022/12/05 05:12:15;;;;;;;31.63;12.60;;;4.70;99.90;;;;;;5078389;28;20416;-57
2022/12/05 05:14:42;;;;;;;25.23;12.00;;;4.60;99.90;;;;;;5078188;28;20435;-54
2022/12/05 05:17:09;;;;;;;31.20;13.77;;;4.70;99.90;;;;;;5077758;28;20490;-55
2022/12/05 05:19:36;;;;;;;29.13;11.80;;;4.70;99.90;;;;;;5078447;28;20445;-57
2022/12/05 05:22:04;;;;;;;25.80;11.20;;;4.70;99.90;;;;;;5078339;28;20472;-56
2022/12/05 05:24:31;;;;;;;31.40;14.57;;;4.70;99.90;;;;;;5078154;28;20416;-58
2022/12/05 05:26:58;;;;;;;30.93;13.00;;;4.70;99.90;;;;;;5078497;28;20459;-55
2022/12/05 05:29:25;;;;;;;26.23;13.83;;;4.70;99.90;;;;;;5078563;28;20447;-60
2022/12/05 05:31:52;;;;;;;24.37;12.57;;;4.70;99.90;;;;;;5077994;28;20463;-59
2022/12/05 05:34:19;;;;;;;37.10;14.50;;;4.80;99.90;;;;;;5077800;28;20843;-58
2022/12/05 05:36:46;;;;;;;36.57;12.20;;;4.80;99.90;;;;;;5077541;28;20451;-61
2022/12/05 05:39:15;;;;;;;25.87;12.83;;;4.80;99.90;;;;;;5077060;28;20450;-59
2022/12/05 05:41:46;;;;;;;19.83;10.77;;;4.80;99.90;;;;;;5077462;28;20461;-55
2022/12/05 05:44:12;;;;;;;25.67;10.80;;;4.80;99.90;;;;;;5070898;28;20428;-57
2022/12/05 05:46:39;;;;;;;25.10;11.10;;;4.80;99.90;;;;;;5077969;28;20462;-57
2022/12/05 05:49:06;;;;;;;22.97;12.30;;;4.80;99.90;;;;;;5077468;28;20451;-58
2022/12/05 05:51:33;;;;;;;24.63;12.97;;;4.80;99.90;;;;;;5077829;28;20448;-57
2022/12/05 05:54:01;;;;;;;21.30;10.07;;;4.80;99.90;;;;;;5069366;28;20463;-60
2022/12/05 05:56:30;;;;;;;27.17;12.97;;;4.80;99.90;;;;;;5076870;28;20447;-58
2022/12/05 05:58:58;;;;;;;19.37;11.40;;;4.80;99.90;;;;;;5078048;28;20483;-54
2022/12/05 06:01:26;;;;;;;30.23;12.87;;;4.90;99.90;;;;;;5077488;28;20466;-59
2022/12/05 06:03:53;;;;;;;27.63;13.37;;;4.90;99.90;;;;;;5077835;28;20451;-56
2022/12/05 06:06:25;;;;;;;30.73;11.83;;;4.90;99.90;;;;;;5078143;28;20427;-54
2022/12/05 06:08:53;;;;;;;29.53;11.90;;;4.80;99.90;;;;;;5077266;28;20463;-55
2022/12/05 06:11:24;;;;;;;22.20;9.67;;;4.80;99.90;;;;;;5077077;28;20435;-55
2022/12/05 06:13:53;;;;;;;23.73;11.80;;;4.80;99.90;;;;;;5076883;28;20498;-54
2022/12/05 06:16:21;;;;;;;30.97;11.47;;;4.90;99.90;;;;;;5076588;28;20439;-55
2022/12/05 06:18:51;;;;;;;28.80;12.13;;;4.80;99.90;;;;;;5075852;28;20522;-59
2022/12/05 06:21:18;;;;;;;22.10;11.40;;;4.90;99.90;;;;;;5077361;28;20432;-56
2022/12/05 06:23:45;;;;;;;26.27;11.40;;;4.90;99.90;;;;;;5076729;28;20486;-57
2022/12/05 06:26:13;;;;;;;24.70;11.93;;;4.90;99.90;;;;;;5076375;28;20443;-58
2022/12/05 06:28:43;;;;;;;21.97;11.67;;;4.90;99.90;;;;;;5076260;28;20443;-59
2022/12/05 06:31:14;;;;;;;25.00;11.87;;;4.90;99.90;;;;;;5076720;28;20420;-61
2022/12/05 06:33:40;;;;;;;19.33;10.40;;;4.90;99.90;;;;;;5076849;28;20434;-58
2022/12/05 06:36:09;;;;;;;16.83;8.90;;;4.90;99.90;;;;;;5076580;28;20513;-55
2022/12/05 06:38:36;;;;;;;21.60;10.13;;;4.90;99.90;;;;;;5076761;28;20565;-57
2022/12/05 06:41:05;;;;;;;17.07;8.77;;;4.90;99.90;;;;;;5077437;28;20439;-59
2022/12/05 06:43:32;;;;;;;19.90;9.40;;;4.90;99.90;;;;;;5077010;28;20458;-55
2022/12/05 06:45:59;;;;;;;16.67;8.00;;;4.90;99.90;;;;;;5076436;28;20432;-59
2022/12/05 06:48:27;;;;;;;21.20;9.30;;;4.90;99.90;;;;;;5076755;28;20448;-56
2022/12/05 06:50:54;;;;;;;21.37;9.67;;;4.90;99.90;;;;;;5070540;28;20423;-58
2022/12/05 06:53:21;;;;;;;18.83;7.40;;;4.80;99.90;;;;;;5076664;28;20567;-55
2022/12/05 06:55:56;;;;;;;16.20;8.50;;;4.90;99.90;;;;;;5075953;28;20471;-53
2022/12/05 06:58:23;;;;;;;20.50;10.10;;;4.90;99.90;;;;;;5075774;28;20463;-58
2022/12/05 07:03:36;;;;;;;17.30;8.57;;;4.90;99.90;;;;;;5076362;28;20411;-56
2022/12/05 07:06:03;;;;;;;16.70;9.03;;;4.90;99.90;;;;;;5076103;28;20466;-58
2022/12/05 07:08:30;;;;;;;12.63;7.77;;;4.90;99.90;;;;;;5075759;28;20910;-60
2022/12/05 07:10:57;;;;;;;19.50;10.43;;;4.90;99.90;;;;;;5076128;28;20478;-47
2022/12/05 07:13:24;;;;;;;21.60;11.70;;;4.90;99.90;;;;;;5076773;28;20427;-56
2022/12/05 07:15:51;;;;;;;17.17;8.67;;;4.90;99.90;;;;;;5076092;28;20470;-59
2022/12/05 07:18:19;;;;;;;18.63;9.60;;;4.90;99.90;;;;;;5076814;28;20490;-58
2022/12/05 07:20:56;;;;;;;26.87;14.10;;;4.90;99.90;;;;;;5075682;28;20470;-57
2022/12/05 07:23:23;;;;;;;21.97;10.20;;;5.00;99.90;;;;;;5075933;28;20447;-57
2022/12/05 07:25:50;;;;;;;18.40;10.27;;;4.90;99.90;;;;;;5076208;28;20471;-58
2022/12/05 07:28:17;;;;;;;17.70;9.10;;;4.90;99.90;;;;;;5075993;28;20427;-58
2022/12/05 07:30:44;;;;;;;16.53;11.13;;;4.90;99.90;;;;;;5076027;28;20574;-57
2022/12/05 07:33:10;;;;;;;18.10;9.07;;;4.90;99.90;;;;;;5076132;28;20442;-57
2022/12/05 07:35:37;;;;;;;21.97;10.47;;;4.90;99.90;;;;;;5076492;28;20459;-54
2022/12/05 07:38:06;;;;;;;18.50;8.77;;;4.90;99.90;;;;;;5076215;28;20463;-59
2022/12/05 07:40:33;;;;;;;12.07;7.87;;;4.90;99.90;;;;;;5075261;28;20461;-63
2022/12/05 07:43:00;;;;;;;19.70;9.70;;;4.90;99.90;;;;;;5075955;28;20436;-52
2022/12/05 07:45:26;;;;;;;22.50;13.10;;;4.90;99.90;;;;;;5075769;28;20462;-61
2022/12/05 07:47:53;;;;;;;20.37;10.07;;;4.90;99.90;;;;;;5075608;28;20444;-55
2022/12/05 07:50:20;;;;;;;16.47;9.87;;;5.00;99.90;;;;;;5075980;28;20446;-58
2022/12/05 07:52:47;;;;;;;20.10;11.13;;;5.00;99.90;;;;;;5076084;28;20493;-59
2022/12/05 07:55:16;;;;;;;17.53;9.07;;;5.00;99.90;;;;;;5075938;28;20444;-59
2022/12/05 07:57:42;;;;;;;19.27;9.67;;;5.00;99.90;;;;;;5075911;28;20446;-59
2022/12/05 08:00:11;;;;;;;19.33;9.00;;;5.00;99.90;;;;;;5075844;28;20443;-60
2022/12/05 08:02:38;;;;;;;20.30;8.07;;;5.00;99.90;;;;;;5075994;28;20494;-60
2022/12/05 08:05:05;;;;;;;21.80;10.10;;;5.00;99.90;;;;;;5074912;28;20449;-59
2022/12/05 08:07:32;;;;;;;16.33;9.73;;;4.90;99.90;;;;;;5075851;28;20455;-62
2022/12/05 08:09:59;;;;;;;25.60;11.27;;;4.90;99.90;;;;;;5075492;28;20457;-58
2022/12/05 08:12:27;;;;;;;17.87;9.50;;;4.90;99.90;;;;;;5076018;28;20451;-61
2022/12/05 08:14:54;;;;;;;24.70;9.33;;;4.90;99.90;;;;;;5076413;28;20439;-57
2022/12/05 08:17:21;;;;;;;18.60;10.87;;;4.90;99.90;;;;;;5065848;28;20510;-59
2022/12/05 08:19:48;;;;;;;20.83;8.80;;;5.00;99.90;;;;;;5074854;28;20471;-60
2022/12/05 08:22:15;;;;;;;18.67;10.37;;;5.00;99.90;;;;;;5075182;28;20471;-57
2022/12/05 08:24:42;;;;;;;18.53;9.00;;;5.00;99.90;;;;;;5075125;28;20456;-58
2022/12/05 08:27:09;;;;;;;20.60;11.03;;;5.00;99.90;;;;;;5075436;28;20486;-57
2022/12/05 08:29:38;;;;;;;27.23;10.97;;;5.00;99.90;;;;;;5075179;28;20427;-60
2022/12/05 08:32:05;;;;;;;20.80;9.53;;;5.00;99.90;;;;;;5075201;28;20462;-61
2022/12/05 08:34:32;;;;;;;21.90;9.27;;;5.00;99.90;;;;;;5075009;28;20443;-59
2022/12/05 08:36:59;;;;;;;16.70;9.33;;;5.10;99.90;;;;;;5075459;28;20525;-56
2022/12/05 08:39:26;;;;;;;21.20;11.17;;;5.00;99.90;;;;;;5075527;28;20479;-56
2022/12/05 08:41:53;;;;;;;14.20;8.50;;;5.10;99.90;;;;;;5075420;28;20459;-56
2022/12/05 08:44:20;;;;;;;16.43;9.37;;;5.10;99.90;;;;;;5075934;28;20446;-59
2022/12/05 08:46:50;;;;;;;16.93;9.50;;;5.00;99.90;;;;;;5075307;28;20474;-62
2022/12/05 08:49:17;;;;;;;17.70;10.17;;;5.00;99.90;;;;;;5069477;28;20459;-57
2022/12/05 08:51:45;;;;;;;16.60;9.20;;;5.00;99.90;;;;;;5069381;28;20463;-63
2022/12/05 08:54:12;;;;;;;17.40;8.50;;;5.00;99.90;;;;;;5079618;28;20412;-63
2022/12/05 08:56:39;;;;;;;19.27;9.17;;;5.00;99.90;;;;;;5079524;28;20440;-59
2022/12/05 08:59:07;;;;;;;21.87;10.53;;;5.00;99.90;;;;;;5079560;28;20467;-65
2022/12/05 09:01:37;;;;;;;13.80;8.07;;;5.00;99.90;;;;;;5079736;28;20435;-61
2022/12/05 09:04:06;;;;;;;20.60;8.47;;;5.10;99.90;;;;;;5079304;28;20411;-64
2022/12/05 09:06:34;;;;;;;15.93;8.60;;;5.10;99.90;;;;;;5079694;28;20439;-60
2022/12/05 09:09:05;;;;;;;16.27;8.53;;;5.00;99.90;;;;;;5079514;28;20440;-58
2022/12/05 09:11:34;;;;;;;15.87;8.97;;;5.00;99.90;;;;;;5079958;28;20422;-66
2022/12/05 09:14:02;;;;;;;19.77;9.40;;;4.90;99.90;;;;;;5079883;28;20431;-54
2022/12/05 09:16:31;;;;;;;16.43;7.20;;;5.00;99.90;;;;;;5079380;28;20434;-56
2022/12/05 09:18:58;;;;;;;11.30;6.60;;;5.00;99.90;;;;;;5079217;28;20509;-57
2022/12/05 09:21:30;;;;;;;12.30;7.80;;;5.00;99.90;;;;;;5080399;28;20435;-54
2022/12/05 09:23:59;;;;;;;10.97;6.93;;;5.00;99.90;;;;;;5079726;28;20447;-56
2022/12/05 09:26:27;;;;;;;14.43;7.00;;;5.00;99.90;;;;;;5073036;28;20488;-60
2022/12/05 09:28:54;;;;;;;10.50;5.70;;;5.00;99.90;;;;;;5075956;28;20450;-65
2022/12/05 09:31:23;;;;;;;15.87;7.63;;;5.00;99.90;;;;;;5076440;28;20454;-60
2022/12/05 09:33:51;;;;;;;17.50;7.90;;;5.00;99.90;;;;;;5079211;28;20450;-59
2022/12/05 09:36:23;;;;;;;18.60;8.20;;;5.00;99.90;;;;;;5078867;28;20473;-54
2022/12/05 09:38:56;;;;;;;15.03;8.53;;;5.00;99.90;;;;;;5078269;28;20469;-54
2022/12/05 09:44:44;;;;;;;15.63;7.97;;;5.00;99.90;;;;;;5231430;22;20546;-60
2022/12/05 09:47:21;;;;;;;10.23;6.53;;;5.00;99.90;;;;;;5096940;28;20447;-59
2022/12/05 09:49:55;;;;;;;13.37;7.60;;;5.00;99.90;;;;;;5096974;28;20431;-61
2022/12/05 09:52:26;;;;;;;18.53;7.40;;;5.00;99.90;;;;;;5097221;28;20460;-59
2022/12/05 09:54:55;;;;;;;15.10;7.03;;;5.00;99.90;;;;;;5097072;28;20438;-60
2022/12/05 09:57:35;;;;;;;14.60;8.80;;;5.00;99.90;;;;;;5096874;28;20450;-59
2022/12/05 10:00:05;;;;;;;12.23;7.10;;;5.00;99.90;;;;;;5096752;28;20458;-61
2022/12/05 10:02:42;;;;;;;14.83;7.30;;;5.00;99.90;;;;;;5091084;28;20439;-61
2022/12/05 10:05:14;;;;;;;11.93;7.70;;;5.00;99.90;;;;;;5095615;28;20419;-58
2022/12/05 10:07:50;;;;;;;21.40;8.80;;;5.10;99.90;;;;;;5095760;28;20770;-59
2022/12/05 10:10:41;;;;;;;14.90;9.90;;;5.10;99.90;;;;;;5096937;28;20418;-59
2022/12/05 10:13:20;;;;;;;16.90;8.90;;;5.10;99.90;;;;;;5096874;28;20454;-57
2022/12/05 10:15:51;;;;;;;13.53;8.27;;;5.10;99.90;;;;;;5097277;28;20469;-56
2022/12/05 10:18:28;;;;;;;11.60;7.60;;;5.10;99.90;;;;;;5097193;28;20469;-58
2022/12/05 10:20:59;;;;;;;14.30;8.70;;;5.20;99.90;;;;;;5097719;28;20422;-61
2022/12/05 10:23:29;;;;;;;15.90;8.27;;;5.20;99.90;;;;;;5097047;28;20451;-61
2022/12/05 10:26:04;;;;;;;18.67;7.60;;;5.20;99.90;;;;;;5097151;28;20439;-58
2022/12/05 10:28:34;;;;;;;15.77;7.83;;;5.20;99.90;;;;;;5089403;28;20466;-59
2022/12/05 10:31:08;;;;;;;28.57;8.43;;;5.20;99.90;;;;;;5096104;28;20430;-59
2022/12/05 10:33:39;;;;;;;15.77;9.47;;;5.10;99.90;;;;;;5095634;28;20463;-58
2022/12/05 10:36:12;;;;;;;18.47;8.40;;;5.20;99.90;;;;;;5095704;28;20449;-56
2022/12/05 10:38:40;;;;;;;17.60;8.23;;;5.10;99.90;;;;;;5096065;28;20478;-56
2022/12/05 10:41:11;;;;;;;21.53;8.90;;;5.20;99.90;;;;;;5095561;28;20882;-59
2022/12/05 10:43:41;;;;;;;15.07;8.47;;;5.10;99.90;;;;;;5095481;28;20459;-58
2022/12/05 10:46:08;;;;;;;16.03;8.57;;;5.20;99.90;;;;;;5095454;28;20442;-59
2022/12/05 10:48:37;;;;;;;13.50;8.10;;;5.20;99.90;;;;;;5095784;28;20471;-59
2022/12/05 10:51:04;;;;;;;21.70;9.70;;;5.20;99.90;;;;;;5095421;28;20457;-59
2022/12/05 10:53:40;;;;;;;17.57;8.80;;;5.30;99.90;;;;;;5095222;28;20908;-59
2022/12/05 10:56:40;;;;;;;13.87;7.43;;;5.30;99.90;;;;;;5095104;28;20426;-57
2022/12/05 10:59:08;;;;;;;22.30;7.97;;;5.30;99.90;;;;;;5095317;28;20485;-58
2022/12/05 11:01:36;;;;;;;12.63;8.27;;;5.30;99.90;;;;;;5095029;28;20470;-57
2022/12/05 11:04:10;;;;;;;16.27;9.90;;;5.30;99.90;;;;;;5094841;28;20454;-57
2022/12/05 11:06:37;;;;;;;13.80;8.03;;;5.30;99.90;;;;;;5091250;28;20529;-60
2022/12/05 11:09:14;;;;;;;16.70;8.53;;;5.30;99.90;;;;;;5093610;28;20528;-57
2022/12/05 11:11:42;;;;;;;19.33;9.80;;;5.30;99.90;;;;;;5094962;28;20490;-59
2022/12/05 11:14:22;;;;;;;14.37;7.83;;;5.30;99.90;;;;;;5094652;28;20458;-56
2022/12/05 11:16:54;;;;;;;17.67;8.77;;;5.30;99.90;;;;;;5095316;28;20422;-58
2022/12/05 11:19:27;;;;;;;15.43;9.47;;;5.40;99.90;;;;;;5094805;28;20545;-59
2022/12/05 11:21:55;;;;;;;17.13;9.37;;;5.40;99.90;;;;;;5095058;28;20454;-59
2022/12/05 11:24:25;;;;;;;17.93;8.00;;;5.40;99.90;;;;;;5094649;28;20466;-60
2022/12/05 11:26:54;;;;;;;15.37;8.70;;;5.40;99.90;;;;;;5094519;28;20469;-58
2022/12/05 11:29:35;;;;;;;14.23;9.87;;;5.40;99.90;;;;;;5094322;28;20465;-57
2022/12/05 11:32:04;;;;;;;18.20;9.50;;;5.40;99.90;;;;;;5094995;28;20449;-58
2022/12/05 11:34:37;;;;;;;18.63;9.27;;;5.40;99.90;;;;;;5087799;28;20542;-56
2022/12/05 11:37:12;;;;;;;16.90;9.13;;;5.40;99.90;;;;;;5094330;28;20431;-59
2022/12/05 11:39:39;;;;;;;20.47;8.87;;;5.50;99.90;;;;;;5094465;28;20511;-59
2022/12/05 11:42:34;;;;;;;16.63;9.10;;;5.50;99.90;;;;;;5094691;28;20473;-59
2022/12/05 11:45:18;;;;;;;16.63;9.27;;;5.50;99.90;;;;;;5094034;28;20481;-56
2022/12/05 11:48:26;;;;;;;19.27;9.13;;;5.40;99.90;;;;;;5094541;28;20481;-60
2022/12/05 11:51:17;;;;;;;18.60;10.63;;;5.40;99.90;;;;;;5038954;28;20474;-58
2022/12/05 11:54:22;;;;;;;18.30;8.13;;;5.40;99.90;;;;;;5094499;28;20431;-57
2022/12/05 11:56:54;;;;;;;22.37;11.10;;;5.40;99.90;;;;;;5013363;28;20445;-59
2022/12/05 11:59:49;;;;;;;21.07;10.60;;;5.40;99.90;;;;;;5078073;28;20496;-60
2022/12/05 12:02:29;;;;;;;20.27;9.53;;;5.40;99.90;;;;;;5094247;28;20465;-59
2022/12/05 12:05:06;;;;;;;19.80;10.30;;;5.40;99.90;;;;;;5094061;28;20513;-59
2022/12/05 12:07:45;;;;;;;18.27;10.17;;;5.40;99.90;;;;;;5094501;28;20472;-59
2022/12/05 12:10:23;;;;;;;16.77;10.00;;;5.40;99.90;;;;;;5090813;28;20454;-60
2022/12/05 12:13:04;;;;;;;19.13;10.53;;;5.40;99.90;;;;;;5088007;28;20500;-58
2022/12/05 12:15:47;;;;;;;18.37;10.17;;;5.40;99.90;;;;;;5093991;28;20470;-59
2022/12/05 12:18:34;;;;;;;20.87;9.80;;;5.40;99.90;;;;;;5094316;28;20442;-58
2022/12/05 12:21:13;;;;;;;26.30;12.97;;;5.50;99.90;;;;;;5094267;28;20490;-59
2022/12/05 12:23:51;;;;;;;19.00;9.70;;;5.50;99.90;;;;;;5093751;28;20425;-60
2022/12/05 12:26:25;;;;;;;22.63;10.30;;;5.50;99.90;;;;;;5087606;28;20460;-60
2022/12/05 12:29:02;;;;;;;17.80;9.83;;;5.50;99.90;;;;;;5097972;28;20486;-60
2022/12/05 12:31:44;;;;;;;26.53;12.77;;;5.50;99.90;;;;;;5098146;28;20935;-60
2022/12/05 12:34:27;;;;;;;25.23;10.63;;;5.50;99.90;;;;;;5097808;28;20423;-58
2022/12/05 12:37:01;;;;;;;31.87;12.03;;;5.50;99.90;;;;;;5098301;28;20423;-57
2022/12/05 12:39:43;;;;;;;19.20;10.83;;;5.50;99.90;;;;;;5097590;28;20489;-59
2022/12/05 12:42:25;;;;;;;23.00;11.93;;;5.50;99.90;;;;;;5097692;28;20525;-57
2022/12/05 12:45:28;;;;;;;24.33;12.60;;;7.40;99.90;;;;;;5097751;28;20473;-59
2022/12/05 12:48:11;;;;;;;22.73;12.17;;;5.50;99.90;;;;;;5098302;28;20425;-58
2022/12/05 12:50:42;;;;;;;15.93;10.23;;;5.50;99.90;;;;;;5098979;28;20458;-62
2022/12/05 12:53:40;;;;;;;17.00;10.17;;;5.50;99.90;;;;;;5098535;28;20434;-60
2022/12/05 12:56:18;;;;;;;25.27;9.60;;;5.40;99.90;;;;;;5098429;28;20497;-63
2022/12/05 12:58:50;;;;;;;24.17;13.00;;;5.50;99.90;;;;;;5098859;28;20468;-56
2022/12/05 13:01:30;;;;;;;19.90;11.67;;;5.50;99.90;;;;;;5098410;28;20466;-59
2022/12/05 13:04:05;;;;;;;33.40;12.63;;;5.50;99.90;;;;;;5098530;28;20434;-58
2022/12/05 13:06:37;;;;;;;24.30;10.87;;;5.50;99.90;;;;;;5098986;28;20470;-61
2022/12/05 13:09:11;;;;;;;27.67;12.20;;;5.50;99.90;;;;;;5099142;28;20442;-62
2022/12/05 13:11:41;;;;;;;21.53;11.20;;;5.50;99.90;;;;;;5099053;28;20466;-58
2022/12/05 13:14:13;;;;;;;26.37;12.17;;;5.50;99.90;;;;;;5098451;28;20501;-58